Portada
METAR-TAF:

METAR-TAF

Aeroports :

Aeroport Internacional de Tunis

Tunis, Tunísia

latitud: 36-50N, longitud: 010-14E, altitud: 3 m

Observació

L'informe es va fer fa 34 minuts, a les 06:00 UTC
Vent 7 kt del Sud/Sud-Oest
Temperatura 8°C
Humitat 81%
Pressió 1014 hPa
Visibilitat: 8000 m
Núvols disperses a una alçada de 2600 ft, Cumulus congestus.

METAR: DTTA 200600Z 21007KT 8000 SCT026TCU 08/05 Q1014

Hora: 07:34 (06:34 UTC)

Pronòstic

L'informe es va fer fa 1 hora i 34 minuts, a les 05:00 UTC
Pronòstic vàlid del 20 a les 06 UTC al 21 a les 06 UTC
Vent 4 kt del Sud/Sud-Oest
Visibilitat 10 km o més
Núvols disperses a una alçada de 2600 ft
Evolucionant progressivament
l' 20 a les 10 UTC al 20 a les 12 UTC
Vent 8 kt del Sud-Oest

TAF: DTTA 200500Z 2006/2106 20004KT 9999 SCT026 BECMG 2010/2012 22008KT

Observacions i pronòstics meteorològics de més de 4000 aeroports (METAR i TAF).

Les estacions disponibles són els punts grocs i vermells al mapa.

Posi el ratolí al punt desitjat per veure el nom de l'estació.

Feu clic per veure les observacions i els pronòstics meteorològics.

Per canviar el mapa: feu clic els botons verds amb una creu de color negre per apropar; al botó verd amb un guió per allunyar la imatge; o en les fletxes verdes per a mapes adjacents.


METAR-TAF: